sensor_id;sensor_type;location;lat;lon;timestamp;pressure;altitude;pressure_sealevel;temperature;humidity
36328;BME280;22354;50.012;8.264;2022-07-22T00:01:22;101064.91;;;20.39;100.00
36328;BME280;22354;50.012;8.264;2022-07-22T00:03:47;101067.16;;;20.28;100.00
36328;BME280;22354;50.012;8.264;2022-07-22T00:08:38;101073.34;;;20.09;100.00
36328;BME280;22354;50.012;8.264;2022-07-22T00:11:04;101076.94;;;19.88;100.00
36328;BME280;22354;50.012;8.264;2022-07-22T00:13:30;101068.03;;;19.94;100.00
36328;BME280;22354;50.012;8.264;2022-07-22T00:15:55;101066.19;;;19.73;100.00
36328;BME280;22354;50.012;8.264;2022-07-22T00:18:20;101065.97;;;19.75;100.00
36328;BME280;22354;50.012;8.264;2022-07-22T00:20:46;101068.03;;;19.66;100.00
36328;BME280;22354;50.012;8.264;2022-07-22T00:23:11;101064.53;;;19.79;100.00
36328;BME280;22354;50.012;8.264;2022-07-22T00:25:37;101065.00;;;19.83;100.00
36328;BME280;22354;50.012;8.264;2022-07-22T00:28:02;101066.06;;;19.88;100.00
36328;BME280;22354;50.012;8.264;2022-07-22T00:30:28;101056.16;;;19.74;100.00
36328;BME280;22354;50.012;8.264;2022-07-22T00:35:31;101064.72;;;19.71;100.00
36328;BME280;22354;50.012;8.264;2022-07-22T00:37:56;101063.44;;;19.67;100.00
36328;BME280;22354;50.012;8.264;2022-07-22T00:40:22;101058.53;;;19.56;100.00
36328;BME280;22354;50.012;8.264;2022-07-22T00:42:47;101058.69;;;19.54;100.00
36328;BME280;22354;50.012;8.264;2022-07-22T00:45:13;101058.38;;;19.42;100.00
36328;BME280;22354;50.012;8.264;2022-07-22T00:47:38;101057.09;;;19.60;100.00
36328;BME280;22354;50.012;8.264;2022-07-22T00:50:06;101059.56;;;19.55;100.00
36328;BME280;22354;50.012;8.264;2022-07-22T00:52:33;101061.72;;;19.66;100.00
36328;BME280;22354;50.012;8.264;2022-07-22T00:54:59;101060.75;;;19.52;100.00
36328;BME280;22354;50.012;8.264;2022-07-22T00:57:24;101056.56;;;19.50;100.00
36328;BME280;22354;50.012;8.264;2022-07-22T00:59:50;101068.47;;;19.49;100.00
36328;BME280;22354;50.012;8.264;2022-07-22T01:02:16;101056.84;;;19.55;100.00
36328;BME280;22354;50.012;8.264;2022-07-22T01:04:41;101064.59;;;19.58;100.00
36328;BME280;22354;50.012;8.264;2022-07-22T01:07:06;101057.88;;;19.54;100.00
36328;BME280;22354;50.012;8.264;2022-07-22T01:09:32;101064.41;;;19.59;100.00
36328;BME280;22354;50.012;8.264;2022-07-22T01:11:58;101062.38;;;19.47;100.00
36328;BME280;22354;50.012;8.264;2022-07-22T01:14:23;101065.44;;;19.37;100.00
36328;BME280;22354;50.012;8.264;2022-07-22T01:16:48;101056.41;;;19.30;100.00
36328;BME280;22354;50.012;8.264;2022-07-22T01:19:17;101065.09;;;19.25;100.00
36328;BME280;22354;50.012;8.264;2022-07-22T01:21:42;101060.88;;;19.16;100.00
36328;BME280;22354;50.012;8.264;2022-07-22T01:24:07;101061.94;;;19.22;100.00
36328;BME280;22354;50.012;8.264;2022-07-22T01:26:33;101070.22;;;19.13;100.00
36328;BME280;22354;50.012;8.264;2022-07-22T01:28:59;101065.72;;;19.21;100.00
36328;BME280;22354;50.012;8.264;2022-07-22T01:31:24;101064.75;;;19.07;100.00
36328;BME280;22354;50.012;8.264;2022-07-22T01:33:49;101067.38;;;19.22;100.00
36328;BME280;22354;50.012;8.264;2022-07-22T01:36:15;101060.53;;;19.26;100.00
36328;BME280;22354;50.012;8.264;2022-07-22T01:38:40;101058.50;;;19.13;100.00
36328;BME280;22354;50.012;8.264;2022-07-22T01:41:05;101064.63;;;19.15;100.00
36328;BME280;22354;50.012;8.264;2022-07-22T01:43:31;101054.59;;;18.94;100.00
36328;BME280;22354;50.012;8.264;2022-07-22T01:45:56;101055.75;;;19.06;100.00
36328;BME280;22354;50.012;8.264;2022-07-22T01:48:22;101054.31;;;19.10;100.00
36328;BME280;22354;50.012;8.264;2022-07-22T01:50:48;101049.34;;;18.93;100.00
36328;BME280;22354;50.012;8.264;2022-07-22T01:53:14;101056.84;;;18.91;100.00
36328;BME280;22354;50.012;8.264;2022-07-22T01:55:39;101058.03;;;19.03;100.00
36328;BME280;22354;50.012;8.264;2022-07-22T01:58:05;101060.06;;;19.01;100.00
36328;BME280;22354;50.012;8.264;2022-07-22T02:00:31;101052.31;;;18.98;100.00
36328;BME280;22354;50.012;8.264;2022-07-22T02:02:57;101054.25;;;18.82;100.00
36328;BME280;22354;50.012;8.264;2022-07-22T02:05:22;101064.88;;;19.20;100.00
36328;BME280;22354;50.012;8.264;2022-07-22T02:07:48;101060.84;;;18.95;100.00
36328;BME280;22354;50.012;8.264;2022-07-22T02:10:13;101058.78;;;18.97;100.00
36328;BME280;22354;50.012;8.264;2022-07-22T02:12:39;101059.81;;;18.96;100.00
36328;BME280;22354;50.012;8.264;2022-07-22T02:15:04;101058.13;;;18.95;100.00
36328;BME280;22354;50.012;8.264;2022-07-22T02:17:30;101055.53;;;18.86;100.00
36328;BME280;22354;50.012;8.264;2022-07-22T02:19:55;101059.41;;;18.99;100.00
36328;BME280;22354;50.012;8.264;2022-07-22T02:22:21;101054.84;;;18.99;100.00
36328;BME280;22354;50.012;8.264;2022-07-22T02:24:46;101059.94;;;19.09;100.00
36328;BME280;22354;50.012;8.264;2022-07-22T02:27:11;101055.63;;;18.93;100.00
36328;BME280;22354;50.012;8.264;2022-07-22T02:29:37;101051.91;;;19.01;100.00
36328;BME280;22354;50.012;8.264;2022-07-22T02:32:02;101055.16;;;18.90;100.00
36328;BME280;22354;50.012;8.264;2022-07-22T02:34:28;101059.22;;;19.00;100.00
36328;BME280;22354;50.012;8.264;2022-07-22T02:36:53;101053.84;;;18.85;100.00
36328;BME280;22354;50.012;8.264;2022-07-22T02:39:18;101060.97;;;18.86;100.00
36328;BME280;22354;50.012;8.264;2022-07-22T02:41:44;101060.84;;;18.95;100.00
36328;BME280;22354;50.012;8.264;2022-07-22T02:44:09;101062.13;;;18.77;100.00
36328;BME280;22354;50.012;8.264;2022-07-22T02:46:35;101062.13;;;18.77;100.00
36328;BME280;22354;50.012;8.264;2022-07-22T02:49:00;101055.97;;;18.54;100.00
36328;BME280;22354;50.012;8.264;2022-07-22T02:51:26;101057.66;;;18.55;100.00
36328;BME280;22354;50.012;8.264;2022-07-22T02:53:51;101074.22;;;18.45;100.00
36328;BME280;22354;50.012;8.264;2022-07-22T02:56:16;101076.00;;;18.53;100.00
36328;BME280;22354;50.012;8.264;2022-07-22T02:58:41;101077.22;;;18.50;100.00
36328;BME280;22354;50.012;8.264;2022-07-22T03:01:07;101067.47;;;18.71;100.00
36328;BME280;22354;50.012;8.264;2022-07-22T03:03:32;101069.88;;;18.80;100.00
36328;BME280;22354;50.012;8.264;2022-07-22T03:05:58;101069.44;;;18.98;100.00
36328;BME280;22354;50.012;8.264;2022-07-22T03:08:24;101073.78;;;18.93;100.00
36328;BME280;22354;50.012;8.264;2022-07-22T03:10:50;101069.63;;;18.75;100.00
36328;BME280;22354;50.012;8.264;2022-07-22T03:13:15;101076.59;;;18.84;100.00
36328;BME280;22354;50.012;8.264;2022-07-22T03:15:41;101073.97;;;18.91;100.00
36328;BME280;22354;50.012;8.264;2022-07-22T03:18:06;101066.84;;;19.11;100.00
36328;BME280;22354;50.012;8.264;2022-07-22T03:20:31;101075.50;;;19.15;100.00
36328;BME280;22354;50.012;8.264;2022-07-22T03:22:58;101075.25;;;18.95;100.00
36328;BME280;22354;50.012;8.264;2022-07-22T03:25:23;101076.63;;;19.06;100.00
36328;BME280;22354;50.012;8.264;2022-07-22T03:27:48;101085.69;;;18.92;100.00
36328;BME280;22354;50.012;8.264;2022-07-22T03:30:14;101088.00;;;18.95;100.00
36328;BME280;22354;50.012;8.264;2022-07-22T03:32:39;101084.34;;;18.88;100.00
36328;BME280;22354;50.012;8.264;2022-07-22T03:35:09;101075.72;;;18.99;100.00
36328;BME280;22354;50.012;8.264;2022-07-22T03:37:35;101077.81;;;19.18;100.00
36328;BME280;22354;50.012;8.264;2022-07-22T03:40:00;101074.56;;;19.08;100.00
36328;BME280;22354;50.012;8.264;2022-07-22T03:42:25;101079.22;;;18.93;100.00
36328;BME280;22354;50.012;8.264;2022-07-22T03:44:50;101079.47;;;18.98;100.00
36328;BME280;22354;50.012;8.264;2022-07-22T03:47:21;101090.47;;;19.11;100.00
36328;BME280;22354;50.012;8.264;2022-07-22T03:49:47;101078.22;;;19.00;100.00
36328;BME280;22354;50.012;8.264;2022-07-22T03:52:13;101088.78;;;19.10;100.00
36328;BME280;22354;50.012;8.264;2022-07-22T03:54:39;101082.97;;;19.13;100.00
36328;BME280;22354;50.012;8.264;2022-07-22T03:57:04;101081.53;;;18.96;100.00
36328;BME280;22354;50.012;8.264;2022-07-22T03:59:29;101075.38;;;18.87;100.00
36328;BME280;22354;50.012;8.264;2022-07-22T04:01:54;101081.38;;;18.82;100.00
36328;BME280;22354;50.012;8.264;2022-07-22T04:04:20;101074.44;;;18.95;100.00
36328;BME280;22354;50.012;8.264;2022-07-22T04:06:45;101076.91;;;18.75;100.00
36328;BME280;22354;50.012;8.264;2022-07-22T04:09:10;101071.66;;;18.88;100.00
36328;BME280;22354;50.012;8.264;2022-07-22T04:11:36;101067.63;;;18.84;100.00
36328;BME280;22354;50.012;8.264;2022-07-22T04:14:01;101062.78;;;19.01;100.00
36328;BME280;22354;50.012;8.264;2022-07-22T04:16:26;101058.25;;;18.86;100.00
36328;BME280;22354;50.012;8.264;2022-07-22T04:18:51;101054.91;;;19.27;100.00
36328;BME280;22354;50.012;8.264;2022-07-22T04:21:17;101058.75;;;19.39;100.00
36328;BME280;22354;50.012;8.264;2022-07-22T04:23:42;101049.47;;;19.06;100.00
36328;BME280;22354;50.012;8.264;2022-07-22T04:26:07;101050.00;;;19.16;100.00
36328;BME280;22354;50.012;8.264;2022-07-22T04:28:33;101054.00;;;18.99;100.00
36328;BME280;22354;50.012;8.264;2022-07-22T04:31:01;101043.91;;;18.93;100.00
36328;BME280;22354;50.012;8.264;2022-07-22T04:33:26;101056.06;;;19.18;100.00
36328;BME280;22354;50.012;8.264;2022-07-22T04:35:51;101055.34;;;19.09;100.00
36328;BME280;22354;50.012;8.264;2022-07-22T04:38:17;101056.06;;;19.18;100.00
36328;BME280;22354;50.012;8.264;2022-07-22T04:40:42;101053.75;;;19.15;100.00
36328;BME280;22354;50.012;8.264;2022-07-22T04:43:08;101054.41;;;19.17;100.00
36328;BME280;22354;50.012;8.264;2022-07-22T04:45:33;101053.88;;;19.28;100.00
36328;BME280;22354;50.012;8.264;2022-07-22T04:47:58;101051.91;;;19.43;100.00
36328;BME280;22354;50.012;8.264;2022-07-22T04:50:24;101053.03;;;19.28;100.00
36328;BME280;22354;50.012;8.264;2022-07-22T04:52:51;101049.47;;;19.06;100.00
36328;BME280;22354;50.012;8.264;2022-07-22T04:55:16;101052.69;;;19.37;100.00
36328;BME280;22354;50.012;8.264;2022-07-22T04:57:41;101054.03;;;19.48;100.00
36328;BME280;22354;50.012;8.264;2022-07-22T05:00:07;101061.88;;;19.36;100.00
36328;BME280;22354;50.012;8.264;2022-07-22T05:02:32;101064.66;;;19.43;100.00
36328;BME280;22354;50.012;8.264;2022-07-22T05:04:58;101056.88;;;19.40;100.00
36328;BME280;22354;50.012;8.264;2022-07-22T05:07:23;101065.34;;;19.52;100.00
36328;BME280;22354;50.012;8.264;2022-07-22T05:09:49;101061.34;;;19.26;100.00
36328;BME280;22354;50.012;8.264;2022-07-22T05:12:14;101065.38;;;19.09;100.00
36328;BME280;22354;50.012;8.264;2022-07-22T05:14:39;101061.19;;;19.06;100.00
36328;BME280;22354;50.012;8.264;2022-07-22T05:17:09;101057.16;;;19.24;100.00
36328;BME280;22354;50.012;8.264;2022-07-22T05:19:37;101060.63;;;19.39;100.00
36328;BME280;22354;50.012;8.264;2022-07-22T05:22:02;101063.50;;;19.31;100.00
36328;BME280;22354;50.012;8.264;2022-07-22T05:24:28;101072.09;;;19.34;100.00
36328;BME280;22354;50.012;8.264;2022-07-22T05:26:53;101065.09;;;19.68;100.00
36328;BME280;22354;50.012;8.264;2022-07-22T05:29:18;101068.75;;;19.32;100.00
36328;BME280;22354;50.012;8.264;2022-07-22T05:31:43;101059.56;;;19.55;100.00
36328;BME280;22354;50.012;8.264;2022-07-22T05:34:09;101056.69;;;19.63;100.00
36328;BME280;22354;50.012;8.264;2022-07-22T05:36:34;101058.16;;;19.65;100.00
36328;BME280;22354;50.012;8.264;2022-07-22T05:39:00;101055.38;;;19.80;100.00
36328;BME280;22354;50.012;8.264;2022-07-22T05:41:25;101059.91;;;19.52;100.00
36328;BME280;22354;50.012;8.264;2022-07-22T05:43:50;101053.84;;;19.50;100.00
36328;BME280;22354;50.012;8.264;2022-07-22T05:46:16;101050.03;;;19.44;100.00
36328;BME280;22354;50.012;8.264;2022-07-22T05:48:41;101047.78;;;19.26;100.00
36328;BME280;22354;50.012;8.264;2022-07-22T05:51:13;101061.78;;;19.51;100.00
36328;BME280;22354;50.012;8.264;2022-07-22T05:53:39;101047.09;;;19.95;100.00
36328;BME280;22354;50.012;8.264;2022-07-22T05:56:05;101047.31;;;19.93;100.00
36328;BME280;22354;50.012;8.264;2022-07-22T05:58:30;101035.97;;;19.62;100.00
36328;BME280;22354;50.012;8.264;2022-07-22T06:00:56;101038.75;;;19.19;100.00
36328;BME280;22354;50.012;8.264;2022-07-22T06:03:22;101044.56;;;18.95;100.00
36328;BME280;22354;50.012;8.264;2022-07-22T06:05:47;101042.53;;;19.25;100.00
36328;BME280;22354;50.012;8.264;2022-07-22T06:08:12;101046.38;;;19.30;100.00
36328;BME280;22354;50.012;8.264;2022-07-22T06:10:38;101048.81;;;19.25;100.00
36328;BME280;22354;50.012;8.264;2022-07-22T06:13:03;101061.47;;;19.39;100.00
36328;BME280;22354;50.012;8.264;2022-07-22T06:15:29;101058.97;;;19.38;100.00
36328;BME280;22354;50.012;8.264;2022-07-22T06:17:54;101045.97;;;19.83;100.00
36328;BME280;22354;50.012;8.264;2022-07-22T06:20:19;101048.13;;;19.94;100.00
36328;BME280;22354;50.012;8.264;2022-07-22T06:22:45;101044.03;;;20.11;100.00
36328;BME280;22354;50.012;8.264;2022-07-22T06:25:10;101051.00;;;20.20;100.00
36328;BME280;22354;50.012;8.264;2022-07-22T06:27:35;101050.31;;;20.46;100.00
36328;BME280;22354;50.012;8.264;2022-07-22T06:30:01;101052.84;;;20.54;100.00
36328;BME280;22354;50.012;8.264;2022-07-22T06:32:26;101058.53;;;20.59;100.00
36328;BME280;22354;50.012;8.264;2022-07-22T06:34:51;101058.97;;;20.70;100.00
36328;BME280;22354;50.012;8.264;2022-07-22T06:37:17;101063.38;;;20.29;100.00
36328;BME280;22354;50.012;8.264;2022-07-22T06:39:42;101057.09;;;20.29;100.00
36328;BME280;22354;50.012;8.264;2022-07-22T06:42:08;101049.50;;;20.18;100.00
36328;BME280;22354;50.012;8.264;2022-07-22T06:44:33;101056.31;;;20.35;100.00
36328;BME280;22354;50.012;8.264;2022-07-22T06:46:58;101047.09;;;20.36;100.00
36328;BME280;22354;50.012;8.264;2022-07-22T06:49:24;101052.97;;;19.98;100.00
36328;BME280;22354;50.012;8.264;2022-07-22T06:51:49;101055.50;;;19.72;100.00
36328;BME280;22354;50.012;8.264;2022-07-22T06:54:14;101047.59;;;19.77;100.00
36328;BME280;22354;50.012;8.264;2022-07-22T06:56:39;101046.19;;;19.88;100.00
36328;BME280;22354;50.012;8.264;2022-07-22T06:59:05;101046.91;;;20.03;100.00
36328;BME280;22354;50.012;8.264;2022-07-22T07:01:30;101056.19;;;20.09;100.00
36328;BME280;22354;50.012;8.264;2022-07-22T07:03:56;101048.03;;;20.15;100.00
36328;BME280;22354;50.012;8.264;2022-07-22T07:06:21;101040.28;;;20.53;100.00
36328;BME280;22354;50.012;8.264;2022-07-22T07:08:46;101032.81;;;20.21;100.00
36328;BME280;22354;50.012;8.264;2022-07-22T07:11:12;101042.81;;;20.14;100.00
36328;BME280;22354;50.012;8.264;2022-07-22T07:13:37;101036.44;;;19.93;100.00
36328;BME280;22354;50.012;8.264;2022-07-22T07:16:03;101031.41;;;19.97;100.00
36328;BME280;22354;50.012;8.264;2022-07-22T07:18:28;101018.50;;;20.06;100.00
36328;BME280;22354;50.012;8.264;2022-07-22T07:20:53;101022.06;;;20.47;100.00
36328;BME280;22354;50.012;8.264;2022-07-22T07:23:19;101022.78;;;20.28;100.00
36328;BME280;22354;50.012;8.264;2022-07-22T07:25:44;101027.00;;;20.37;100.00
36328;BME280;22354;50.012;8.264;2022-07-22T07:28:10;101010.53;;;20.45;100.00
36328;BME280;22354;50.012;8.264;2022-07-22T07:30:35;101021.16;;;19.99;100.00
36328;BME280;22354;50.012;8.264;2022-07-22T07:33:00;101006.44;;;20.28;100.00
36328;BME280;22354;50.012;8.264;2022-07-22T07:35:27;101009.19;;;20.89;100.00
36328;BME280;22354;50.012;8.264;2022-07-22T07:37:53;101005.44;;;21.16;100.00
36328;BME280;22354;50.012;8.264;2022-07-22T07:40:18;101003.75;;;21.02;100.00
36328;BME280;22354;50.012;8.264;2022-07-22T07:42:44;101000.97;;;20.63;100.00
36328;BME280;22354;50.012;8.264;2022-07-22T07:45:09;101001.94;;;20.42;100.00
36328;BME280;22354;50.012;8.264;2022-07-22T07:47:35;100998.47;;;20.20;100.00
36328;BME280;22354;50.012;8.264;2022-07-22T07:50:00;100998.69;;;20.25;100.00
36328;BME280;22354;50.012;8.264;2022-07-22T07:52:28;101002.56;;;20.02;100.00
36328;BME280;22354;50.012;8.264;2022-07-22T07:54:53;101007.38;;;20.00;100.00
36328;BME280;22354;50.012;8.264;2022-07-22T07:57:20;101005.94;;;20.46;100.00
36328;BME280;22354;50.012;8.264;2022-07-22T07:59:46;101009.41;;;20.33;100.00
36328;BME280;22354;50.012;8.264;2022-07-22T08:02:11;100998.16;;;20.43;100.00
36328;BME280;22354;50.012;8.264;2022-07-22T08:04:37;101005.16;;;20.58;100.00
36328;BME280;22354;50.012;8.264;2022-07-22T08:07:04;101005.75;;;20.54;100.00
36328;BME280;22354;50.012;8.264;2022-07-22T08:09:29;101008.03;;;20.57;100.00
36328;BME280;22354;50.012;8.264;2022-07-22T08:11:55;101002.53;;;20.37;100.00
36328;BME280;22354;50.012;8.264;2022-07-22T08:14:20;101002.09;;;20.40;100.00
36328;BME280;22354;50.012;8.264;2022-07-22T08:16:45;101004.91;;;20.47;100.00
36328;BME280;22354;50.012;8.264;2022-07-22T08:19:11;100999.53;;;20.80;100.00
36328;BME280;22354;50.012;8.264;2022-07-22T08:21:36;101001.63;;;20.91;100.00
36328;BME280;22354;50.012;8.264;2022-07-22T08:24:02;100999.34;;;20.88;100.00
36328;BME280;22354;50.012;8.264;2022-07-22T08:26:27;100999.56;;;21.00;100.00
36328;BME280;22354;50.012;8.264;2022-07-22T08:28:53;100998.06;;;20.90;100.00
36328;BME280;22354;50.012;8.264;2022-07-22T08:31:18;100993.69;;;21.09;100.00
36328;BME280;22354;50.012;8.264;2022-07-22T08:33:44;100981.09;;;20.82;100.00
36328;BME280;22354;50.012;8.264;2022-07-22T08:36:09;100986.34;;;21.03;100.00
36328;BME280;22354;50.012;8.264;2022-07-22T08:38:35;100971.31;;;21.27;100.00
36328;BME280;22354;50.012;8.264;2022-07-22T08:41:02;100972.09;;;21.21;100.00
36328;BME280;22354;50.012;8.264;2022-07-22T08:43:30;100967.75;;;21.27;100.00
36328;BME280;22354;50.012;8.264;2022-07-22T08:45:56;100972.97;;;21.35;100.00
36328;BME280;22354;50.012;8.264;2022-07-22T08:48:22;100971.88;;;21.09;100.00
36328;BME280;22354;50.012;8.264;2022-07-22T08:50:47;100978.84;;;21.45;100.00
36328;BME280;22354;50.012;8.264;2022-07-22T08:53:13;100968.78;;;21.52;100.00
36328;BME280;22354;50.012;8.264;2022-07-22T08:55:46;100964.72;;;21.74;100.00
36328;BME280;22354;50.012;8.264;2022-07-22T08:58:12;100966.03;;;21.65;100.00
36328;BME280;22354;50.012;8.264;2022-07-22T09:00:38;100967.72;;;21.46;100.00
36328;BME280;22354;50.012;8.264;2022-07-22T09:03:19;100970.19;;;21.61;100.00
36328;BME280;22354;50.012;8.264;2022-07-22T09:05:48;100969.78;;;21.58;100.00
36328;BME280;22354;50.012;8.264;2022-07-22T09:08:14;100973.16;;;21.53;100.00
36328;BME280;22354;50.012;8.264;2022-07-22T09:10:39;100966.59;;;21.81;100.00
36328;BME280;22354;50.012;8.264;2022-07-22T09:13:07;100966.13;;;21.97;100.00
36328;BME280;22354;50.012;8.264;2022-07-22T09:15:35;100966.53;;;22.07;100.00
36328;BME280;22354;50.012;8.264;2022-07-22T09:18:02;100965.47;;;22.15;100.00
36328;BME280;22354;50.012;8.264;2022-07-22T09:20:28;100964.66;;;22.01;100.00
36328;BME280;22354;50.012;8.264;2022-07-22T09:22:54;100961.91;;;22.14;100.00
36328;BME280;22354;50.012;8.264;2022-07-22T09:27:56;100962.69;;;22.28;100.00
36328;BME280;22354;50.012;8.264;2022-07-22T09:30:24;100957.19;;;22.34;100.00
36328;BME280;22354;50.012;8.264;2022-07-22T09:32:51;100951.19;;;22.19;100.00
36328;BME280;22354;50.012;8.264;2022-07-22T09:35:17;100959.38;;;22.57;100.00
36328;BME280;22354;50.012;8.264;2022-07-22T09:37:48;100957.22;;;22.66;100.00
36328;BME280;22354;50.012;8.264;2022-07-22T09:40:19;100956.50;;;23.09;100.00
36328;BME280;22354;50.012;8.264;2022-07-22T09:42:52;100951.66;;;22.79;100.00
36328;BME280;22354;50.012;8.264;2022-07-22T09:45:19;100946.63;;;22.45;100.00
36328;BME280;22354;50.012;8.264;2022-07-22T09:47:45;100947.03;;;22.80;100.00
36328;BME280;22354;50.012;8.264;2022-07-22T09:50:18;100945.78;;;22.76;100.00
36328;BME280;22354;50.012;8.264;2022-07-22T09:52:44;100946.91;;;23.00;100.00
36328;BME280;22354;50.012;8.264;2022-07-22T09:55:10;100940.69;;;22.92;100.00
36328;BME280;22354;50.012;8.264;2022-07-22T09:57:36;100937.03;;;22.99;100.00
36328;BME280;22354;50.012;8.264;2022-07-22T10:00:03;100936.78;;;23.07;100.00
36328;BME280;22354;50.012;8.264;2022-07-22T10:02:31;100927.94;;;23.05;100.00
36328;BME280;22354;50.012;8.264;2022-07-22T10:04:58;100928.97;;;23.10;100.00
36328;BME280;22354;50.012;8.264;2022-07-22T10:07:25;100924.09;;;23.12;100.00
36328;BME280;22354;50.012;8.264;2022-07-22T10:09:52;100908.78;;;23.30;100.00
36328;BME280;22354;50.012;8.264;2022-07-22T10:12:19;100928.03;;;23.41;100.00
36328;BME280;22354;50.012;8.264;2022-07-22T10:14:45;100924.31;;;23.54;100.00
36328;BME280;22354;50.012;8.264;2022-07-22T10:17:13;100922.72;;;23.46;100.00
36328;BME280;22354;50.012;8.264;2022-07-22T10:19:39;100917.31;;;23.40;100.00
36328;BME280;22354;50.012;8.264;2022-07-22T10:22:44;100914.81;;;23.57;100.00
36328;BME280;22354;50.012;8.264;2022-07-22T10:25:13;100900.41;;;23.68;100.00
36328;BME280;22354;50.012;8.264;2022-07-22T10:27:50;100903.13;;;23.49;100.00
36328;BME280;22354;50.012;8.264;2022-07-22T10:30:19;100903.00;;;23.63;100.00
36328;BME280;22354;50.012;8.264;2022-07-22T10:32:45;100894.44;;;23.59;100.00
36328;BME280;22354;50.012;8.264;2022-07-22T10:37:37;100896.97;;;24.09;100.00
36328;BME280;22354;50.012;8.264;2022-07-22T10:40:14;100890.28;;;24.05;100.00
36328;BME280;22354;50.012;8.264;2022-07-22T10:45:30;100885.97;;;23.79;100.00
36328;BME280;22354;50.012;8.264;2022-07-22T10:47:58;100882.84;;;23.94;100.00
36328;BME280;22354;50.012;8.264;2022-07-22T10:53:13;100879.63;;;24.15;100.00
36328;BME280;22354;50.012;8.264;2022-07-22T10:55:57;100871.44;;;24.27;100.00
36328;BME280;22354;50.012;8.264;2022-07-22T11:01:05;100867.63;;;24.28;100.00
36328;BME280;22354;50.012;8.264;2022-07-22T11:03:33;100869.13;;;24.42;100.00
36328;BME280;22354;50.012;8.264;2022-07-22T11:08:40;100854.31;;;24.73;100.00
36328;BME280;22354;50.012;8.264;2022-07-22T11:11:06;100861.09;;;24.70;100.00
36328;BME280;22354;50.012;8.264;2022-07-22T11:16:19;100845.78;;;25.05;100.00
36328;BME280;22354;50.012;8.264;2022-07-22T11:18:45;100844.28;;;25.49;100.00
36328;BME280;22354;50.012;8.264;2022-07-22T11:21:11;100839.00;;;26.11;100.00
36328;BME280;22354;50.012;8.264;2022-07-22T11:23:40;100834.09;;;25.84;100.00
36328;BME280;22354;50.012;8.264;2022-07-22T11:26:06;100833.41;;;26.06;100.00
36328;BME280;22354;50.012;8.264;2022-07-22T11:28:39;100834.91;;;26.13;100.00
36328;BME280;22354;50.012;8.264;2022-07-22T11:31:06;100840.75;;;26.45;100.00
36328;BME280;22354;50.012;8.264;2022-07-22T11:33:31;100830.41;;;26.53;100.00
36328;BME280;22354;50.012;8.264;2022-07-22T11:36:02;100820.03;;;26.71;100.00
36328;BME280;22354;50.012;8.264;2022-07-22T11:38:40;100815.06;;;26.90;100.00
36328;BME280;22354;50.012;8.264;2022-07-22T11:41:05;100818.41;;;26.42;100.00
36328;BME280;22354;50.012;8.264;2022-07-22T11:43:40;100822.69;;;26.50;100.00
36328;BME280;22354;50.012;8.264;2022-07-22T11:46:07;100813.34;;;26.51;100.00
36328;BME280;22354;50.012;8.264;2022-07-22T11:48:32;100814.28;;;26.73;100.00
36328;BME280;22354;50.012;8.264;2022-07-22T11:51:15;100811.59;;;26.78;100.00
36328;BME280;22354;50.012;8.264;2022-07-22T11:53:42;100798.66;;;26.95;100.00
36328;BME280;22354;50.012;8.264;2022-07-22T11:56:09;100795.56;;;26.92;100.00
36328;BME280;22354;50.012;8.264;2022-07-22T11:58:36;100798.97;;;27.16;100.00
36328;BME280;22354;50.012;8.264;2022-07-22T12:01:04;100797.00;;;27.11;100.00
36328;BME280;22354;50.012;8.264;2022-07-22T12:03:30;100796.25;;;27.38;100.00
36328;BME280;22354;50.012;8.264;2022-07-22T12:05:56;100805.50;;;27.31;100.00
36328;BME280;22354;50.012;8.264;2022-07-22T12:08:22;100787.53;;;27.46;100.00
36328;BME280;22354;50.012;8.264;2022-07-22T12:10:47;100793.16;;;27.34;100.00
36328;BME280;22354;50.012;8.264;2022-07-22T12:13:13;100793.28;;;27.44;100.00
36328;BME280;22354;50.012;8.264;2022-07-22T12:15:39;100802.19;;;27.51;100.00
36328;BME280;22354;50.012;8.264;2022-07-22T12:18:21;100785.19;;;27.76;100.00
36328;BME280;22354;50.012;8.264;2022-07-22T12:20:48;100773.75;;;27.89;100.00
36328;BME280;22354;50.012;8.264;2022-07-22T12:23:14;100767.75;;;27.71;100.00
36328;BME280;22354;50.012;8.264;2022-07-22T12:25:54;100774.59;;;27.90;100.00
36328;BME280;22354;50.012;8.264;2022-07-22T12:28:20;100765.38;;;27.79;100.00
36328;BME280;22354;50.012;8.264;2022-07-22T12:30:47;100767.00;;;27.75;100.00
36328;BME280;22354;50.012;8.264;2022-07-22T12:33:18;100765.22;;;27.91;100.00
36328;BME280;22354;50.012;8.264;2022-07-22T12:35:44;100757.66;;;28.03;100.00
36328;BME280;22354;50.012;8.264;2022-07-22T12:38:22;100759.09;;;27.84;100.00
36328;BME280;22354;50.012;8.264;2022-07-22T12:40:47;100743.72;;;27.88;100.00
36328;BME280;22354;50.012;8.264;2022-07-22T12:43:13;100739.13;;;27.99;100.00
36328;BME280;22354;50.012;8.264;2022-07-22T12:45:38;100743.31;;;28.01;100.00
36328;BME280;22354;50.012;8.264;2022-07-22T12:53:07;100736.13;;;28.00;100.00
36328;BME280;22354;50.012;8.264;2022-07-22T12:55:38;100733.56;;;28.26;100.00
36328;BME280;22354;50.012;8.264;2022-07-22T12:58:05;100728.88;;;28.21;100.00
36328;BME280;22354;50.012;8.264;2022-07-22T13:00:36;100725.94;;;28.28;100.00
36328;BME280;22354;50.012;8.264;2022-07-22T13:03:02;100720.75;;;28.36;100.00
36328;BME280;22354;50.012;8.264;2022-07-22T13:05:27;100718.47;;;28.65;100.00